Time,TemperatureF,DewpointF,PressureIn,WindDirection,WindDirectionDegrees,WindSpeedMPH,WindSpeedGustMPH,Humidity,HourlyPrecipIn,Conditions,Clouds,dailyrainin,SoftwareType,DateUTC
2013-11-03 00:00:00,52.7,49.0,29.64,South,181,0.0,1.0,87,0.00,,,0.00,VWS V14.01,2013-11-03 04:00:00,
2013-11-03 00:01:00,52.7,49.0,29.64,South,181,0.0,1.0,87,0.00,,,0.01,VWS V14.01,2013-11-03 04:01:00,
2013-11-03 00:02:00,52.7,49.0,29.64,South,181,0.0,1.0,87,0.00,,,0.01,VWS V14.01,2013-11-03 04:02:00,
2013-11-03 00:07:00,52.6,48.8,29.65,South,181,0.0,0.0,87,0.00,,,0.00,VWS V14.01,2013-11-03 04:07:00,
2013-11-03 00:12:00,52.5,48.8,29.65,South,181,0.0,0.0,87,0.00,,,0.00,VWS V14.01,2013-11-03 04:12:00,
2013-11-03 00:17:00,52.3,48.5,29.65,South,181,0.0,0.0,87,0.00,,,0.00,VWS V14.01,2013-11-03 04:17:00,
2013-11-03 00:22:00,52.1,48.7,29.65,South,181,0.0,0.0,88,0.00,,,0.00,VWS V14.01,2013-11-03 04:22:00,
2013-11-03 00:27:00,52.0,48.6,29.66,South,181,0.0,0.0,88,0.00,,,0.00,VWS V14.01,2013-11-03 04:27:00,
2013-11-03 00:30:00,51.8,48.4,29.65,South,181,0.0,0.0,88,0.00,,,0.00,VWS V14.01,2013-11-03 04:30:00,
2013-11-03 00:32:00,51.8,48.4,29.65,South,181,0.0,0.0,88,0.00,,,0.00,VWS V14.01,2013-11-03 04:32:00,
2013-11-03 00:37:00,51.6,48.5,29.65,South,181,0.0,0.0,89,0.00,,,0.00,VWS V14.01,2013-11-03 04:37:00,
2013-11-03 00:42:00,51.5,48.4,29.65,South,181,0.0,0.0,89,0.00,,,0.00,VWS V14.01,2013-11-03 04:42:00,
2013-11-03 00:47:00,51.4,48.3,29.65,South,181,0.0,0.0,89,0.00,,,0.00,VWS V14.01,2013-11-03 04:47:00,
2013-11-03 00:52:00,51.3,48.2,29.66,South,181,0.0,0.0,89,0.00,,,0.00,VWS V14.01,2013-11-03 04:52:00,
2013-11-03 00:57:00,51.2,48.1,29.66,South,181,0.0,0.0,89,0.00,,,0.00,VWS V14.01,2013-11-03 04:57:00,
2013-11-03 01:00:00,50.6,48.1,29.68,South,181,0.0,1.0,91,0.00,,,0.00,VWS V14.01,2013-11-03 05:00:00,
2013-11-03 01:01:00,50.5,48.0,29.68,South,181,0.0,1.0,91,0.00,,,0.00,VWS V14.01,2013-11-03 05:01:00,
2013-11-03 01:02:00,51.3,48.2,29.67,South,181,0.0,0.0,89,0.00,,,0.00,VWS V14.01,2013-11-03 05:02:00,
2013-11-03 01:03:00,50.5,48.0,29.68,South,181,0.0,1.0,91,0.00,,,0.00,VWS V14.01,2013-11-03 05:03:00,
2013-11-03 01:04:00,50.5,48.0,29.68,South,181,0.0,1.0,91,0.00,,,0.00,VWS V14.01,2013-11-03 05:04:00,
2013-11-03 01:05:00,50.5,48.0,29.68,South,181,0.0,1.0,91,0.00,,,0.00,VWS V14.01,2013-11-03 05:05:00,
2013-11-03 01:06:00,50.5,48.0,29.68,South,181,0.0,1.0,91,0.00,,,0.00,VWS V14.01,2013-11-03 05:06:00,
2013-11-03 01:07:00,51.3,48.2,29.67,South,181,0.0,0.0,89,0.00,,,0.00,VWS V14.01,2013-11-03 05:07:00,
2013-11-03 01:12:00,51.2,48.1,29.67,South,181,0.0,0.0,89,0.00,,,0.00,VWS V14.01,2013-11-03 05:12:00,
2013-11-03 01:17:00,51.2,48.1,29.68,South,181,0.0,0.0,89,0.00,,,0.00,VWS V14.01,2013-11-03 05:17:00,
2013-11-03 01:22:00,51.1,48.3,29.67,South,181,0.0,0.0,90,0.00,,,0.00,VWS V14.01,2013-11-03 05:22:00,
2013-11-03 01:27:00,51.1,48.3,29.68,South,181,0.0,0.0,90,0.00,,,0.00,VWS V14.01,2013-11-03 05:27:00,
2013-11-03 01:30:00,51.0,48.2,29.68,South,181,0.0,0.0,90,0.00,,,0.00,VWS V14.01,2013-11-03 05:30:00,
2013-11-03 01:32:00,51.0,48.2,29.68,South,181,0.0,0.0,90,0.00,,,0.00,VWS V14.01,2013-11-03 05:32:00,
2013-11-03 01:37:00,51.0,48.2,29.69,South,181,0.0,0.0,90,0.00,,,0.00,VWS V14.01,2013-11-03 05:37:00,
2013-11-03 01:42:00,50.9,48.1,29.69,South,181,0.0,0.0,90,0.00,,,0.00,VWS V14.01,2013-11-03 05:42:00,
2013-11-03 01:47:00,50.8,48.3,29.68,South,181,0.0,0.0,91,0.00,,,0.00,VWS V14.01,2013-11-03 05:47:00,
2013-11-03 01:52:00,50.7,48.2,29.68,South,181,0.0,1.0,91,0.00,,,0.00,VWS V14.01,2013-11-03 05:52:00,
2013-11-03 01:57:00,50.6,48.1,29.67,South,181,0.0,1.0,91,0.00,,,0.00,VWS V14.01,2013-11-03 05:57:00,
2013-11-03 01:00:00,49.5,47.0,29.69,South,181,0.0,1.0,91,0.00,,,0.00,VWS V14.01,2013-11-03 06:00:00,
2013-11-03 01:02:00,50.6,48.1,29.68,South,181,0.0,1.0,91,0.00,,,0.00,VWS V14.01,2013-11-03 06:02:00,
2013-11-03 01:07:00,50.5,48.0,29.68,South,181,0.0,1.0,91,0.00,,,0.00,VWS V14.01,2013-11-03 06:07:00,
2013-11-03 01:12:00,50.5,47.7,29.69,South,181,0.0,1.0,90,0.00,,,0.00,VWS V14.01,2013-11-03 06:12:00,
2013-11-03 01:17:00,50.4,47.9,29.69,South,181,0.0,1.0,91,0.00,,,0.00,VWS V14.01,2013-11-03 06:17:00,
2013-11-03 01:22:00,50.3,47.8,29.69,South,181,0.0,1.0,91,0.00,,,0.00,VWS V14.01,2013-11-03 06:22:00,
2013-11-03 01:27:00,50.3,47.8,29.69,South,181,0.0,1.0,91,0.00,,,0.00,VWS V14.01,2013-11-03 06:27:00,
2013-11-03 01:30:00,49.5,46.7,29.71,North,355,0.0,4.0,90,0.00,,,0.00,VWS V14.01,2013-11-03 06:30:00,
2013-11-03 01:32:00,50.1,47.6,29.68,South,181,0.0,1.0,91,0.00,,,0.00,VWS V14.01,2013-11-03 06:32:00,
2013-11-03 01:37:00,50.0,47.5,29.69,South,181,0.0,1.0,91,0.00,,,0.00,VWS V14.01,2013-11-03 06:37:00,
2013-11-03 01:42:00,49.9,47.4,29.69,South,181,0.0,1.0,91,0.00,,,0.00,VWS V14.01,2013-11-03 06:42:00,
2013-11-03 01:47:00,49.8,47.3,29.69,South,181,0.0,1.0,91,0.00,,,0.00,VWS V14.01,2013-11-03 06:47:00,
2013-11-03 01:52:00,49.7,47.2,29.70,South,181,0.0,1.0,91,0.00,,,0.00,VWS V14.01,2013-11-03 06:52:00,
2013-11-03 01:57:00,49.6,47.1,29.70,South,181,0.0,1.0,91,0.00,,,0.00,VWS V14.01,2013-11-03 06:57:00,
2013-11-03 02:00:00,49.4,46.6,29.72,NW,313,0.0,5.0,90,0.00,,,0.00,VWS V14.01,2013-11-03 07:00:00,
2013-11-03 02:02:00,49.5,47.0,29.69,South,181,0.0,1.0,91,0.00,,,0.00,VWS V14.01,2013-11-03 07:02:00,
2013-11-03 02:07:00,49.4,46.9,29.69,South,181,0.0,2.0,91,0.00,,,0.00,VWS V14.01,2013-11-03 07:07:00,
2013-11-03 02:12:00,49.5,47.0,29.70,South,189,0.0,3.0,91,0.00,,,0.00,VWS V14.01,2013-11-03 07:12:00,
2013-11-03 02:17:00,49.6,47.1,29.70,NW,313,0.0,3.0,91,0.00,,,0.00,VWS V14.01,2013-11-03 07:17:00,
2013-11-03 02:22:00,49.6,46.8,29.70,NNW,331,3.0,4.0,90,0.00,,,0.00,VWS V14.01,2013-11-03 07:22:00,
2013-11-03 02:27:00,49.6,46.8,29.71,NNW,347,0.0,4.0,90,0.00,,,0.00,VWS V14.01,2013-11-03 07:27:00,
2013-11-03 02:30:00,49.5,46.7,29.75,NW,313,1.0,7.0,90,0.00,,,0.00,VWS V14.01,2013-11-03 07:30:00,
2013-11-03 02:32:00,49.6,46.8,29.71,North,355,0.0,4.0,90,0.00,,,0.00,VWS V14.01,2013-11-03 07:32:00,
2013-11-03 02:37:00,49.5,46.7,29.72,North,355,0.0,2.0,90,0.00,,,0.00,VWS V14.01,2013-11-03 07:37:00,
2013-11-03 02:42:00,49.5,46.7,29.72,North,355,1.0,3.0,90,0.00,,,0.00,VWS V14.01,2013-11-03 07:42:00,
2013-11-03 02:47:00,49.5,46.7,29.72,North,355,0.0,3.0,90,0.00,,,0.00,VWS V14.01,2013-11-03 07:47:00,
2013-11-03 02:52:00,49.4,46.6,29.72,North,355,0.0,3.0,90,0.00,,,0.00,VWS V14.01,2013-11-03 07:52:00,
2013-11-03 02:57:00,49.4,46.6,29.72,NW,313,1.0,5.0,90,0.00,,,0.00,VWS V14.01,2013-11-03 07:57:00,
2013-11-03 03:00:00,50.0,46.6,29.76,North,5,1.0,10.0,88,0.00,,,0.00,VWS V14.01,2013-11-03 08:00:00,
2013-11-03 03:02:00,49.4,46.6,29.72,NW,313,0.0,5.0,90,0.00,,,0.00,VWS V14.01,2013-11-03 08:02:00,
2013-11-03 03:07:00,49.3,46.5,29.72,NW,313,2.0,2.0,90,0.00,,,0.00,VWS V14.01,2013-11-03 08:07:00,
2013-11-03 03:12:00,49.2,46.4,29.73,NW,313,1.0,3.0,90,0.00,,,0.00,VWS V14.01,2013-11-03 08:12:00,
2013-11-03 03:17:00,49.2,46.4,29.74,NW,313,1.0,3.0,90,0.00,,,0.00,VWS V14.01,2013-11-03 08:17:00,
2013-11-03 03:22:00,49.3,46.5,29.74,NW,313,0.0,3.0,90,0.00,,,0.00,VWS V14.01,2013-11-03 08:22:00,
2013-11-03 03:27:00,49.4,46.6,29.75,NW,313,1.0,3.0,90,0.00,,,0.00,VWS V14.01,2013-11-03 08:27:00,
2013-11-03 03:30:00,48.8,46.6,29.78,West,271,7.0,10.0,92,0.00,,,0.00,VWS V14.01,2013-11-03 08:30:00,
2013-11-03 03:32:00,49.5,46.7,29.75,NW,313,1.0,7.0,90,0.00,,,0.00,VWS V14.01,2013-11-03 08:32:00,
2013-11-03 03:37:00,49.6,46.8,29.75,North,5,3.0,6.0,90,0.00,,,0.00,VWS V14.01,2013-11-03 08:37:00,
2013-11-03 03:42:00,49.7,46.6,29.75,North,5,3.0,6.0,89,0.00,,,0.00,VWS V14.01,2013-11-03 08:42:00,
2013-11-03 03:47:00,49.8,46.7,29.75,North,350,4.0,8.0,89,0.00,,,0.00,VWS V14.01,2013-11-03 08:47:00,
2013-11-03 03:52:00,49.9,46.8,29.75,NE,44,4.0,8.0,89,0.00,,,0.00,VWS V14.01,2013-11-03 08:52:00,
2013-11-03 03:57:00,49.9,46.5,29.76,NW,323,1.0,8.0,88,0.00,,,0.00,VWS V14.01,2013-11-03 08:57:00,
2013-11-03 04:00:00,47.5,45.6,29.80,North,350,5.0,10.0,93,0.00,,,0.00,VWS V14.01,2013-11-03 09:00:00,
2013-11-03 04:02:00,50.0,46.6,29.76,North,5,2.0,10.0,88,0.00,,,0.00,VWS V14.01,2013-11-03 09:02:00,
2013-11-03 04:07:00,50.1,46.7,29.76,NNW,335,2.0,8.0,88,0.00,,,0.00,VWS V14.01,2013-11-03 09:07:00,
2013-11-03 04:12:00,50.0,46.9,29.76,NW,318,1.0,10.0,89,0.00,,,0.00,VWS V14.01,2013-11-03 09:12:00,
2013-11-03 04:17:00,49.8,47.0,29.77,North,355,4.0,10.0,90,0.00,,,0.00,VWS V14.01,2013-11-03 09:17:00,
2013-11-03 04:21:00,49.4,46.9,29.77,North,360,1.0,10.0,91,0.00,,,0.00,VWS V14.01,2013-11-03 09:21:00,
2013-11-03 04:27:00,49.1,46.9,29.77,NW,310,3.0,10.0,92,0.00,,,0.00,VWS V14.01,2013-11-03 09:27:00,
2013-11-03 04:30:00,46.9,45.0,29.82,NE,42,4.0,10.0,93,0.00,,,0.00,VWS V14.01,2013-11-03 09:30:00,
2013-11-03 04:32:00,48.8,46.6,29.78,NW,321,5.0,10.0,92,0.00,,,0.00,VWS V14.01,2013-11-03 09:32:00,
2013-11-03 04:36:00,48.6,46.7,29.78,North,5,4.0,6.0,93,0.00,,,0.00,VWS V14.01,2013-11-03 09:36:00,
2013-11-03 04:41:00,48.3,46.4,29.79,NNW,335,4.0,7.0,93,0.00,,,0.00,VWS V14.01,2013-11-03 09:41:00,
2013-11-03 04:46:00,48.1,46.2,29.79,WNW,300,4.0,7.0,93,0.00,,,0.00,VWS V14.01,2013-11-03 09:46:00,
2013-11-03 04:51:00,47.9,46.0,29.80,ENE,59,4.0,10.0,93,0.00,,,0.00,VWS V14.01,2013-11-03 09:51:00,
2013-11-03 04:56:00,47.7,45.8,29.80,NW,319,1.0,10.0,93,0.00,,,0.00,VWS V14.01,2013-11-03 09:56:00,
2013-11-03 05:00:00,46.6,44.7,29.83,NNE,30,1.0,11.0,93,0.00,,,0.00,VWS V14.01,2013-11-03 10:00:00,
2013-11-03 05:01:00,47.5,45.6,29.80,North,360,4.0,10.0,93,0.00,,,0.00,VWS V14.01,2013-11-03 10:01:00,
2013-11-03 05:06:00,47.3,45.4,29.80,NW,314,3.0,7.0,93,0.00,,,0.00,VWS V14.01,2013-11-03 10:06:00,
2013-11-03 05:11:00,47.2,45.6,29.81,NNE,13,2.0,7.0,94,0.00,,,0.00,VWS V14.01,2013-11-03 10:11:00,
2013-11-03 05:16:00,47.1,45.5,29.81,ENE,70,5.0,8.0,94,0.00,,,0.00,VWS V14.01,2013-11-03 10:16:00,
2013-11-03 05:21:00,47.0,45.4,29.82,NW,323,2.0,8.0,94,0.00,,,0.00,VWS V14.01,2013-11-03 10:21:00,
2013-11-03 05:26:00,47.0,45.4,29.82,WNW,302,3.0,10.0,94,0.00,,,0.00,VWS V14.01,2013-11-03 10:26:00,
2013-11-03 05:30:00,46.0,44.4,29.85,WNW,298,1.0,7.0,94,0.00,,,0.00,VWS V14.01,2013-11-03 10:30:00,
2013-11-03 05:31:00,47.0,45.1,29.82,NNE,28,5.0,10.0,93,0.00,,,0.00,VWS V14.01,2013-11-03 10:31:00,
2013-11-03 05:36:00,47.0,45.1,29.82,ENE,62,8.0,8.0,93,0.00,,,0.00,VWS V14.01,2013-11-03 10:36:00,
2013-11-03 05:41:00,46.9,45.0,29.82,NE,36,4.0,8.0,93,0.00,,,0.00,VWS V14.01,2013-11-03 10:41:00,
2013-11-03 05:46:00,46.9,45.0,29.83,North,360,1.0,8.0,93,0.00,,,0.00,VWS V14.01,2013-11-03 10:46:00,
2013-11-03 05:51:00,46.8,44.9,29.83,NNW,328,1.0,11.0,93,0.00,,,0.00,VWS V14.01,2013-11-03 10:51:00,
2013-11-03 05:56:00,46.7,44.8,29.83,ENE,61,3.0,11.0,93,0.00,,,0.00,VWS V14.01,2013-11-03 10:56:00,
2013-11-03 06:00:00,45.5,44.2,29.87,NNW,333,6.0,10.0,95,0.00,,,0.00,VWS V14.01,2013-11-03 11:00:00,
2013-11-03 06:01:00,46.6,44.7,29.83,NE,52,1.0,11.0,93,0.00,,,0.00,VWS V14.01,2013-11-03 11:01:00,
2013-11-03 06:06:00,46.5,44.6,29.83,NNW,331,0.0,7.0,93,0.00,,,0.00,VWS V14.01,2013-11-03 11:06:00,
2013-11-03 06:11:00,46.4,44.5,29.84,North,10,3.0,7.0,93,0.00,,,0.00,VWS V14.01,2013-11-03 11:11:00,
2013-11-03 06:16:00,46.3,44.4,29.84,NNE,23,3.0,7.0,93,0.00,,,0.00,VWS V14.01,2013-11-03 11:16:00,
2013-11-03 06:21:00,46.2,44.6,29.85,North,355,3.0,7.0,94,0.00,,,0.00,VWS V14.01,2013-11-03 11:21:00,
2013-11-03 06:26:00,46.1,44.5,29.85,North,360,0.0,7.0,94,0.00,,,0.00,VWS V14.01,2013-11-03 11:26:00,
2013-11-03 06:30:00,45.6,44.2,29.89,North,10,8.0,11.0,95,0.00,,,0.00,VWS V14.01,2013-11-03 11:30:00,
2013-11-03 06:31:00,46.0,44.4,29.85,NNE,20,1.0,7.0,94,0.00,,,0.00,VWS V14.01,2013-11-03 11:31:00,
2013-11-03 06:36:00,45.9,44.3,29.85,NE,50,1.0,8.0,94,0.00,,,0.00,VWS V14.01,2013-11-03 11:36:00,
2013-11-03 06:41:00,45.9,44.3,29.86,NW,322,1.0,10.0,94,0.00,,,0.00,VWS V14.01,2013-11-03 11:41:00,
2013-11-03 06:46:00,45.8,44.2,29.86,NNW,334,0.0,10.0,94,0.00,,,0.00,VWS V14.01,2013-11-03 11:46:00,
2013-11-03 06:51:00,45.7,44.3,29.86,WSW,240,3.0,10.0,95,0.00,,,0.00,VWS V14.01,2013-11-03 11:51:00,
2013-11-03 06:56:00,45.6,44.2,29.86,NE,36,4.0,10.0,95,0.00,,,0.00,VWS V14.01,2013-11-03 11:56:00,
2013-11-03 07:00:00,44.9,43.6,29.91,NNE,20,3.0,10.0,95,0.00,,,0.00,VWS V14.01,2013-11-03 12:00:00,
2013-11-03 07:01:00,45.5,44.2,29.87,North,5,2.0,10.0,95,0.00,,,0.00,VWS V14.01,2013-11-03 12:01:00,
2013-11-03 07:06:00,45.5,44.2,29.88,WNW,294,6.0,8.0,95,0.00,,,0.00,VWS V14.01,2013-11-03 12:06:00,
2013-11-03 07:11:00,45.5,44.2,29.88,North,5,2.0,9.0,95,0.00,,,0.00,VWS V14.01,2013-11-03 12:11:00,
2013-11-03 07:16:00,45.5,44.2,29.88,NW,316,6.0,9.0,95,0.00,,,0.00,VWS V14.01,2013-11-03 12:16:00,
2013-11-03 07:21:00,45.5,44.2,29.88,NNE,22,7.0,11.0,95,0.00,,,0.00,VWS V14.01,2013-11-03 12:21:00,
2013-11-03 07:26:00,45.5,44.2,29.89,NNE,25,2.0,11.0,95,0.00,,,0.00,VWS V14.01,2013-11-03 12:26:00,
2013-11-03 07:30:00,44.3,43.0,29.93,NW,325,6.0,14.0,95,0.00,,,0.00,VWS V14.01,2013-11-03 12:30:00,
2013-11-03 07:31:00,45.5,44.2,29.89,North,360,6.0,11.0,95,0.00,,,0.00,VWS V14.01,2013-11-03 12:31:00,
2013-11-03 07:36:00,45.5,44.2,29.90,North,5,2.0,8.0,95,0.00,,,0.00,VWS V14.01,2013-11-03 12:36:00,
2013-11-03 07:41:00,45.3,44.0,29.90,NW,314,4.0,10.0,95,0.00,,,0.00,VWS V14.01,2013-11-03 12:41:00,
2013-11-03 07:46:00,45.2,43.9,29.91,North,349,2.0,10.0,95,0.00,,,0.00,VWS V14.01,2013-11-03 12:46:00,
2013-11-03 07:51:00,45.1,43.8,29.91,NW,322,5.0,10.0,95,0.00,,,0.00,VWS V14.01,2013-11-03 12:51:00,
2013-11-03 07:56:00,45.0,43.7,29.91,NNE,13,4.0,10.0,95,0.00,,,0.00,VWS V14.01,2013-11-03 12:56:00,
2013-11-03 08:00:00,44.2,42.6,29.95,East,96,3.0,12.0,94,0.00,,,0.00,VWS V14.01,2013-11-03 13:00:00,
2013-11-03 08:01:00,44.9,43.6,29.91,NE,44,1.0,10.0,95,0.00,,,0.00,VWS V14.01,2013-11-03 13:01:00,
2013-11-03 08:06:00,44.9,43.6,29.92,NNW,338,5.0,8.0,95,0.00,,,0.00,VWS V14.01,2013-11-03 13:06:00,
2013-11-03 08:11:00,44.7,43.4,29.92,NNE,22,1.0,12.0,95,0.00,,,0.00,VWS V14.01,2013-11-03 13:11:00,
2013-11-03 08:16:00,44.8,43.5,29.92,North,355,11.0,12.0,95,0.00,,,0.00,VWS V14.01,2013-11-03 13:16:00,
2013-11-03 08:21:00,44.7,43.4,29.92,WNW,290,3.0,12.0,95,0.00,,,0.00,VWS V14.01,2013-11-03 13:21:00,
2013-11-03 08:26:00,44.5,43.2,29.93,North,355,6.0,14.0,95,0.00,,,0.00,VWS V14.01,2013-11-03 13:26:00,
2013-11-03 08:30:00,43.9,42.3,29.96,North,9,2.0,12.0,94,0.00,,,0.00,VWS V14.01,2013-11-03 13:30:00,
2013-11-03 08:31:00,44.3,43.0,29.93,North,360,4.0,14.0,95,0.00,,,0.00,VWS V14.01,2013-11-03 13:31:00,
2013-11-03 08:36:00,44.3,43.0,29.93,NW,319,5.0,11.0,95,0.00,,,0.00,VWS V14.01,2013-11-03 13:36:00,
2013-11-03 08:41:00,44.2,42.9,29.93,NW,310,8.0,12.0,95,0.00,,,0.00,VWS V14.01,2013-11-03 13:41:00,
2013-11-03 08:46:00,44.2,42.9,29.94,NNW,329,7.0,12.0,95,0.00,,,0.00,VWS V14.01,2013-11-03 13:46:00,
2013-11-03 08:51:00,44.3,43.0,29.94,NW,305,2.0,12.0,95,0.00,,,0.00,VWS V14.01,2013-11-03 13:51:00,
2013-11-03 08:56:00,44.3,42.7,29.94,NW,323,8.0,12.0,94,0.00,,,0.00,VWS V14.01,2013-11-03 13:56:00,
2013-11-03 09:00:00,43.3,42.0,29.98,North,360,3.0,9.0,95,0.00,,,0.00,VWS V14.01,2013-11-03 14:00:00,
2013-11-03 09:01:00,44.2,42.6,29.95,NE,42,3.0,12.0,94,0.00,,,0.00,VWS V14.01,2013-11-03 14:01:00,
2013-11-03 09:06:00,44.1,42.5,29.95,NW,323,2.0,9.0,94,0.00,,,0.00,VWS V14.01,2013-11-03 14:06:00,
2013-11-03 09:11:00,44.0,42.1,29.95,NE,36,4.0,10.0,93,0.00,,,0.00,VWS V14.01,2013-11-03 14:11:00,
2013-11-03 09:16:00,44.0,42.1,29.96,NW,304,5.0,10.0,93,0.00,,,0.00,VWS V14.01,2013-11-03 14:16:00,
2013-11-03 09:21:00,43.9,42.0,29.96,NW,326,2.0,12.0,93,0.00,,,0.00,VWS V14.01,2013-11-03 14:21:00,
2013-11-03 09:26:00,43.8,42.2,29.96,NNE,18,4.0,12.0,94,0.00,,,0.00,VWS V14.01,2013-11-03 14:26:00,
2013-11-03 09:30:00,43.1,41.8,29.99,NNW,347,0.0,10.0,95,0.00,,,0.00,VWS V14.01,2013-11-03 14:30:00,
2013-11-03 09:31:00,43.9,42.3,29.96,ENE,76,1.0,12.0,94,0.00,,,0.00,VWS V14.01,2013-11-03 14:31:00,
2013-11-03 09:36:00,43.8,42.2,29.97,NNE,29,5.0,8.0,94,0.00,,,0.00,VWS V14.01,2013-11-03 14:36:00,
2013-11-03 09:41:00,43.7,42.1,29.97,NNE,20,2.0,8.0,94,0.00,,,0.00,VWS V14.01,2013-11-03 14:41:00,
2013-11-03 09:46:00,43.6,42.0,29.97,NE,34,5.0,8.0,94,0.00,,,0.00,VWS V14.01,2013-11-03 14:46:00,
2013-11-03 09:51:00,43.4,41.8,29.98,North,11,2.0,9.0,94,0.00,,,0.00,VWS V14.01,2013-11-03 14:51:00,
2013-11-03 09:56:00,43.4,42.1,29.98,North,350,0.0,9.0,95,0.00,,,0.00,VWS V14.01,2013-11-03 14:56:00,
2013-11-03 10:00:00,43.6,42.3,30.00,NE,40,4.0,11.0,95,0.00,,,0.00,VWS V14.01,2013-11-03 15:00:00,
2013-11-03 10:01:00,43.4,42.1,29.98,North,350,3.0,9.0,95,0.00,,,0.00,VWS V14.01,2013-11-03 15:01:00,
2013-11-03 10:06:00,43.3,42.0,29.98,North,355,4.0,7.0,95,0.00,,,0.00,VWS V14.01,2013-11-03 15:06:00,
2013-11-03 10:11:00,43.1,41.8,29.99,WNW,295,4.0,8.0,95,0.00,,,0.00,VWS V14.01,2013-11-03 15:11:00,
2013-11-03 10:16:00,43.0,41.7,29.99,SW,235,3.0,10.0,95,0.00,,,0.00,VWS V14.01,2013-11-03 15:16:00,
2013-11-03 10:21:00,43.0,41.7,29.99,NNE,15,5.0,10.0,95,0.00,,,0.00,VWS V14.01,2013-11-03 15:21:00,
2013-11-03 10:26:00,43.1,41.8,29.99,WNW,300,5.0,10.0,95,0.00,,,0.00,VWS V14.01,2013-11-03 15:26:00,
2013-11-03 10:30:00,43.5,41.9,30.01,NE,49,1.0,14.0,94,0.00,,,0.00,VWS V14.01,2013-11-03 15:30:00,
2013-11-03 10:31:00,43.1,41.8,29.99,NW,320,3.0,10.0,95,0.00,,,0.00,VWS V14.01,2013-11-03 15:31:00,
2013-11-03 10:36:00,43.1,41.8,30.00,NE,45,2.0,7.0,95,0.00,,,0.00,VWS V14.01,2013-11-03 15:36:00,
2013-11-03 10:41:00,43.1,41.8,30.00,North,9,1.0,11.0,95,0.00,,,0.00,VWS V14.01,2013-11-03 15:41:00,
2013-11-03 10:46:00,43.3,42.0,30.00,NW,319,1.0,11.0,95,0.00,,,0.00,VWS V14.01,2013-11-03 15:46:00,
2013-11-03 10:51:00,43.5,42.4,30.00,NNE,32,2.0,11.0,96,0.00,,,0.00,VWS V14.01,2013-11-03 15:51:00,
2013-11-03 10:56:00,43.5,42.2,30.00,NE,50,5.0,11.0,95,0.00,,,0.00,VWS V14.01,2013-11-03 15:56:00,
2013-11-03 11:00:00,43.3,41.7,30.01,NW,323,6.0,12.0,94,0.00,,,0.00,VWS V14.01,2013-11-03 16:00:00,
2013-11-03 11:01:00,43.6,42.3,30.00,NNE,17,6.0,11.0,95,0.00,,,0.00,VWS V14.01,2013-11-03 16:01:00,
2013-11-03 11:06:00,43.6,42.3,30.00,West,274,6.0,11.0,95,0.00,,,0.00,VWS V14.01,2013-11-03 16:06:00,
2013-11-03 11:11:00,43.7,42.4,30.01,ESE,103,8.0,12.0,95,0.00,,,0.00,VWS V14.01,2013-11-03 16:11:00,
2013-11-03 11:16:00,43.6,42.0,30.01,North,360,4.0,12.0,94,0.00,,,0.00,VWS V14.01,2013-11-03 16:16:00,
2013-11-03 11:21:00,43.6,42.3,30.01,NW,323,10.0,14.0,95,0.00,,,0.00,VWS V14.01,2013-11-03 16:21:00,
2013-11-03 11:26:00,43.5,41.9,30.01,NNE,23,4.0,14.0,94,0.00,,,0.00,VWS V14.01,2013-11-03 16:26:00,
2013-11-03 11:30:00,42.9,41.3,30.02,East,90,2.0,12.0,94,0.00,,,0.00,VWS V14.01,2013-11-03 16:30:00,
2013-11-03 11:31:00,43.5,41.9,30.01,NNE,32,3.0,14.0,94,0.00,,,0.00,VWS V14.01,2013-11-03 16:31:00,
2013-11-03 11:36:00,43.6,42.0,30.01,NNE,32,5.0,8.0,94,0.00,,,0.00,VWS V14.01,2013-11-03 16:36:00,
2013-11-03 11:41:00,43.3,41.7,30.01,NE,49,9.0,12.0,94,0.00,,,0.00,VWS V14.01,2013-11-03 16:41:00,
2013-11-03 11:46:00,43.3,41.7,30.01,North,5,5.0,12.0,94,0.00,,,0.00,VWS V14.01,2013-11-03 16:46:00,
2013-11-03 11:51:00,43.3,41.7,30.01,North,5,1.0,12.0,94,0.00,,,0.00,VWS V14.01,2013-11-03 16:51:00,
2013-11-03 11:56:00,43.2,41.6,30.01,NNE,22,2.0,12.0,94,0.00,,,0.00,VWS V14.01,2013-11-03 16:56:00,
2013-11-03 12:00:00,42.7,40.5,30.03,NW,320,3.0,12.0,92,0.00,,,0.00,VWS V14.01,2013-11-03 17:00:00,
2013-11-03 12:01:00,43.3,41.7,30.01,NNE,12,4.0,12.0,94,0.00,,,0.00,VWS V14.01,2013-11-03 17:01:00,
2013-11-03 12:06:00,43.3,41.7,30.01,NNE,32,2.0,10.0,94,0.00,,,0.00,VWS V14.01,2013-11-03 17:06:00,
2013-11-03 12:11:00,43.5,41.9,30.01,North,5,1.0,10.0,94,0.00,,,0.00,VWS V14.01,2013-11-03 17:11:00,
2013-11-03 12:16:00,43.3,41.7,30.02,NE,46,3.0,10.0,94,0.00,,,0.00,VWS V14.01,2013-11-03 17:16:00,
2013-11-03 12:21:00,42.9,41.0,30.02,North,5,2.0,12.0,93,0.00,,,0.00,VWS V14.01,2013-11-03 17:21:00,
2013-11-03 12:26:00,42.7,40.8,30.02,NNE,22,2.0,12.0,93,0.00,,,0.00,VWS V14.01,2013-11-03 17:26:00,
2013-11-03 12:30:00,43.5,41.0,30.05,NE,50,4.0,9.0,91,0.00,,,0.00,VWS V14.01,2013-11-03 17:30:00,
2013-11-03 12:31:00,42.8,41.2,30.02,NNW,328,3.0,12.0,94,0.00,,,0.00,VWS V14.01,2013-11-03 17:31:00,
2013-11-03 12:36:00,43.1,41.5,30.02,NE,38,0.0,7.0,94,0.00,,,0.00,VWS V14.01,2013-11-03 17:36:00,
2013-11-03 12:41:00,43.4,41.8,30.03,NNE,21,4.0,9.0,94,0.00,,,0.00,VWS V14.01,2013-11-03 17:41:00,
2013-11-03 12:46:00,43.2,41.3,30.03,NNE,22,4.0,10.0,93,0.00,,,0.00,VWS V14.01,2013-11-03 17:46:00,
2013-11-03 12:51:00,42.9,40.7,30.03,NNE,32,3.0,10.0,92,0.00,,,0.00,VWS V14.01,2013-11-03 17:51:00,
2013-11-03 12:56:00,42.9,40.7,30.03,NNW,331,3.0,12.0,92,0.00,,,0.00,VWS V14.01,2013-11-03 17:56:00,
2013-11-03 13:00:00,43.6,40.3,30.05,NE,40,0.0,7.0,88,0.00,,,0.00,VWS V14.01,2013-11-03 18:00:00,
2013-11-03 13:01:00,42.7,40.5,30.04,NNE,19,0.0,12.0,92,0.00,,,0.00,VWS V14.01,2013-11-03 18:01:00,
2013-11-03 13:06:00,42.6,40.4,30.03,NW,325,4.0,7.0,92,0.00,,,0.00,VWS V14.01,2013-11-03 18:06:00,
2013-11-03 13:11:00,42.6,40.4,30.03,North,360,6.0,9.0,92,0.00,,,0.00,VWS V14.01,2013-11-03 18:11:00,
2013-11-03 13:16:00,42.8,40.9,30.04,North,9,0.0,9.0,93,0.00,,,0.00,VWS V14.01,2013-11-03 18:16:00,
2013-11-03 13:21:00,43.2,41.3,30.04,NW,311,4.0,9.0,93,0.00,,,0.00,VWS V14.01,2013-11-03 18:21:00,
2013-11-03 13:26:00,43.5,41.3,30.04,NE,40,3.0,9.0,92,0.00,,,0.00,VWS V14.01,2013-11-03 18:26:00,
2013-11-03 13:30:00,43.6,38.8,30.06,North,351,1.0,9.0,83,0.00,,,0.00,VWS V14.01,2013-11-03 18:30:00,
2013-11-03 13:31:00,43.6,41.2,30.05,NNE,15,5.0,9.0,91,0.00,,,0.00,VWS V14.01,2013-11-03 18:31:00,
2013-11-03 13:36:00,43.7,41.0,30.05,NE,39,3.0,5.0,90,0.00,,,0.00,VWS V14.01,2013-11-03 18:36:00,
2013-11-03 13:41:00,43.7,41.0,30.05,NE,37,0.0,7.0,90,0.00,,,0.00,VWS V14.01,2013-11-03 18:41:00,
2013-11-03 13:46:00,43.6,40.6,30.05,North,349,2.0,7.0,89,0.00,,,0.00,VWS V14.01,2013-11-03 18:46:00,
2013-11-03 13:51:00,43.6,40.6,30.05,North,5,3.0,7.0,89,0.00,,,0.00,VWS V14.01,2013-11-03 18:51:00,
2013-11-03 13:56:00,43.7,40.4,30.05,North,9,1.0,7.0,88,0.00,,,0.00,VWS V14.01,2013-11-03 18:56:00,
2013-11-03 14:00:00,43.1,39.5,30.08,NNW,340,2.0,8.0,87,0.00,,,0.00,VWS V14.01,2013-11-03 19:00:00,
2013-11-03 14:01:00,43.6,40.3,30.05,NE,39,1.0,7.0,88,0.00,,,0.00,VWS V14.01,2013-11-03 19:01:00,
2013-11-03 14:06:00,43.6,40.0,30.05,NNW,332,3.0,5.0,87,0.00,,,0.00,VWS V14.01,2013-11-03 19:06:00,
2013-11-03 14:11:00,43.6,39.7,30.06,NW,326,5.0,6.0,86,0.00,,,0.00,VWS V14.01,2013-11-03 19:11:00,
2013-11-03 14:16:00,43.6,39.4,30.06,NE,39,1.0,9.0,85,0.00,,,0.00,VWS V14.01,2013-11-03 19:16:00,
2013-11-03 14:21:00,43.6,39.1,30.06,NNE,26,3.0,9.0,84,0.00,,,0.00,VWS V14.01,2013-11-03 19:21:00,
2013-11-03 14:26:00,43.6,39.1,30.06,NNW,342,0.0,9.0,84,0.00,,,0.00,VWS V14.01,2013-11-03 19:26:00,
2013-11-03 14:30:00,42.6,39.3,30.09,NW,315,4.0,7.0,88,0.00,,,0.00,VWS V14.01,2013-11-03 19:30:00,
2013-11-03 14:31:00,43.6,39.1,30.06,North,350,1.0,9.0,84,0.00,,,0.00,VWS V14.01,2013-11-03 19:31:00,
2013-11-03 14:36:00,43.6,38.8,30.07,NNE,16,2.0,5.0,83,0.00,,,0.00,VWS V14.01,2013-11-03 19:36:00,
2013-11-03 14:41:00,43.5,38.7,30.06,NNW,329,2.0,7.0,83,0.00,,,0.00,VWS V14.01,2013-11-03 19:41:00,
2013-11-03 14:46:00,43.5,38.7,30.07,WNW,290,0.0,7.0,83,0.00,,,0.00,VWS V14.01,2013-11-03 19:46:00,
2013-11-03 14:51:00,43.5,39.3,30.07,NNE,17,0.0,8.0,85,0.00,,,0.00,VWS V14.01,2013-11-03 19:51:00,
2013-11-03 14:56:00,43.4,39.5,30.07,NNE,32,3.0,8.0,86,0.00,,,0.00,VWS V14.01,2013-11-03 19:56:00,
2013-11-03 15:00:00,42.7,39.4,30.10,NNW,333,1.0,6.0,88,0.00,,,0.00,VWS V14.01,2013-11-03 20:00:00,
2013-11-03 15:01:00,43.1,39.5,30.08,NW,322,2.0,8.0,87,0.00,,,0.00,VWS V14.01,2013-11-03 20:01:00,
2013-11-03 15:06:00,42.9,39.6,30.08,WSW,242,2.0,3.0,88,0.00,,,0.00,VWS V14.01,2013-11-03 20:06:00,
2013-11-03 15:11:00,42.7,39.4,30.09,WNW,302,0.0,7.0,88,0.00,,,0.00,VWS V14.01,2013-11-03 20:11:00,
2013-11-03 15:16:00,42.7,39.4,30.09,NW,314,2.0,7.0,88,0.00,,,0.00,VWS V14.01,2013-11-03 20:16:00,
2013-11-03 15:21:00,42.7,39.4,30.08,NNW,336,1.0,7.0,88,0.00,,,0.00,VWS V14.01,2013-11-03 20:21:00,
2013-11-03 15:26:00,42.5,39.2,30.09,NW,315,1.0,7.0,88,0.00,,,0.00,VWS V14.01,2013-11-03 20:26:00,
2013-11-03 15:30:00,42.5,38.6,30.12,North,350,4.0,8.0,86,0.00,,,0.00,VWS V14.01,2013-11-03 20:30:00,
2013-11-03 15:31:00,42.6,39.3,30.09,NW,315,0.0,7.0,88,0.00,,,0.00,VWS V14.01,2013-11-03 20:31:00,
2013-11-03 15:36:00,42.7,39.4,30.09,North,5,1.0,5.0,88,0.00,,,0.00,VWS V14.01,2013-11-03 20:36:00,
2013-11-03 15:41:00,42.7,39.4,30.10,North,5,0.0,5.0,88,0.00,,,0.00,VWS V14.01,2013-11-03 20:41:00,
2013-11-03 15:46:00,42.8,39.5,30.10,North,5,1.0,5.0,88,0.00,,,0.00,VWS V14.01,2013-11-03 20:46:00,
2013-11-03 15:51:00,42.8,39.5,30.10,North,360,2.0,5.0,88,0.00,,,0.00,VWS V14.01,2013-11-03 20:51:00,
2013-11-03 15:56:00,42.7,39.4,30.10,North,360,0.0,5.0,88,0.00,,,0.00,VWS V14.01,2013-11-03 20:56:00,
2013-11-03 16:00:00,41.8,37.3,30.14,NNW,333,0.0,6.0,84,0.00,,,0.00,VWS V14.01,2013-11-03 21:00:00,
2013-11-03 16:01:00,42.7,39.4,30.10,NNW,333,1.0,6.0,88,0.00,,,0.00,VWS V14.01,2013-11-03 21:01:00,
2013-11-03 16:06:00,42.7,39.1,30.10,NW,326,1.0,5.0,87,0.00,,,0.00,VWS V14.01,2013-11-03 21:06:00,
2013-11-03 16:11:00,42.7,39.1,30.11,WNW,299,3.0,6.0,87,0.00,,,0.00,VWS V14.01,2013-11-03 21:11:00,
2013-11-03 16:16:00,42.7,39.1,30.11,NW,321,1.0,6.0,87,0.00,,,0.00,VWS V14.01,2013-11-03 21:16:00,
2013-11-03 16:21:00,42.7,38.8,30.11,NNE,17,1.0,8.0,86,0.00,,,0.00,VWS V14.01,2013-11-03 21:21:00,
2013-11-03 16:26:00,42.7,38.8,30.11,North,5,3.0,8.0,86,0.00,,,0.00,VWS V14.01,2013-11-03 21:26:00,
2013-11-03 16:30:00,41.0,35.9,30.16,NNE,22,0.0,6.0,82,0.00,,,0.00,VWS V14.01,2013-11-03 21:30:00,
2013-11-03 16:31:00,42.6,38.7,30.12,NNW,343,1.0,8.0,86,0.00,,,0.00,VWS V14.01,2013-11-03 21:31:00,
2013-11-03 16:36:00,42.5,38.6,30.12,NNE,24,3.0,3.0,86,0.00,,,0.00,VWS V14.01,2013-11-03 21:36:00,
2013-11-03 16:41:00,42.5,38.6,30.12,North,5,0.0,5.0,86,0.00,,,0.00,VWS V14.01,2013-11-03 21:41:00,
2013-11-03 16:46:00,42.4,38.2,30.13,NNE,13,2.0,5.0,85,0.00,,,0.00,VWS V14.01,2013-11-03 21:46:00,
2013-11-03 16:51:00,42.2,38.0,30.13,NNE,13,2.0,5.0,85,0.00,,,0.00,VWS V14.01,2013-11-03 21:51:00,
2013-11-03 16:56:00,42.0,37.8,30.14,NNW,336,3.0,5.0,85,0.00,,,0.00,VWS V14.01,2013-11-03 21:56:00,
2013-11-03 17:00:00,39.5,35.4,30.17,NNE,22,0.0,3.0,85,0.00,,,0.00,VWS V14.01,2013-11-03 22:00:00,
2013-11-03 17:01:00,41.8,37.3,30.14,NNW,333,0.0,6.0,84,0.00,,,0.00,VWS V14.01,2013-11-03 22:01:00,
2013-11-03 17:06:00,41.6,36.8,30.14,NW,309,3.0,6.0,83,0.00,,,0.00,VWS V14.01,2013-11-03 22:06:00,
2013-11-03 17:11:00,41.5,36.7,30.15,NW,306,2.0,6.0,83,0.00,,,0.00,VWS V14.01,2013-11-03 22:11:00,
2013-11-03 17:16:00,41.4,36.3,30.15,WNW,300,0.0,6.0,82,0.00,,,0.00,VWS V14.01,2013-11-03 22:16:00,
2013-11-03 17:21:00,41.3,35.9,30.15,NW,310,0.0,6.0,81,0.00,,,0.00,VWS V14.01,2013-11-03 22:21:00,
2013-11-03 17:26:00,41.2,35.8,30.16,NW,311,0.0,6.0,81,0.00,,,0.00,VWS V14.01,2013-11-03 22:26:00,
2013-11-03 17:30:00,38.7,35.2,30.18,NNE,22,0.0,3.0,87,0.00,,,0.00,VWS V14.01,2013-11-03 22:30:00,
2013-11-03 17:31:00,41.0,35.6,30.16,NNE,22,0.0,6.0,81,0.00,,,0.00,VWS V14.01,2013-11-03 22:31:00,
2013-11-03 17:36:00,40.8,35.7,30.16,NNE,22,0.0,3.0,82,0.00,,,0.00,VWS V14.01,2013-11-03 22:36:00,
2013-11-03 17:41:00,40.5,35.8,30.16,NNE,22,0.0,3.0,83,0.00,,,0.00,VWS V14.01,2013-11-03 22:41:00,
2013-11-03 17:46:00,40.3,35.6,30.17,NNE,22,0.0,3.0,83,0.00,,,0.00,VWS V14.01,2013-11-03 22:46:00,
2013-11-03 17:51:00,40.1,35.4,30.17,NNE,22,0.0,3.0,83,0.00,,,0.00,VWS V14.01,2013-11-03 22:51:00,
2013-11-03 17:56:00,39.7,35.3,30.17,NNE,22,0.0,3.0,84,0.00,,,0.00,VWS V14.01,2013-11-03 22:56:00,
2013-11-03 18:00:00,39.1,35.0,30.19,NNE,17,0.0,3.0,85,0.00,,,0.00,VWS V14.01,2013-11-03 23:00:00,
2013-11-03 18:01:00,39.5,35.4,30.17,NNE,22,0.0,3.0,85,0.00,,,0.00,VWS V14.01,2013-11-03 23:01:00,
2013-11-03 18:06:00,39.3,35.2,30.17,NNE,22,1.0,2.0,85,0.00,,,0.00,VWS V14.01,2013-11-03 23:06:00,
2013-11-03 18:11:00,39.1,35.3,30.17,NNE,22,0.0,2.0,86,0.00,,,0.00,VWS V14.01,2013-11-03 23:11:00,
2013-11-03 18:16:00,38.9,35.1,30.18,NNE,22,0.0,2.0,86,0.00,,,0.00,VWS V14.01,2013-11-03 23:16:00,
2013-11-03 18:21:00,38.8,35.3,30.18,NNE,22,0.0,2.0,87,0.00,,,0.00,VWS V14.01,2013-11-03 23:21:00,
2013-11-03 18:26:00,38.7,35.2,30.18,NNE,22,0.0,3.0,87,0.00,,,0.00,VWS V14.01,2013-11-03 23:26:00,
2013-11-03 18:30:00,39.2,34.5,30.21,NNW,336,3.0,5.0,83,0.00,,,0.00,VWS V14.01,2013-11-03 23:30:00,
2013-11-03 18:31:00,38.7,35.2,30.18,NNE,22,1.0,3.0,87,0.00,,,0.00,VWS V14.01,2013-11-03 23:31:00,
2013-11-03 18:36:00,38.7,34.9,30.19,NNE,22,1.0,1.0,86,0.00,,,0.00,VWS V14.01,2013-11-03 23:36:00,
2013-11-03 18:41:00,38.7,34.9,30.19,NNE,21,0.0,3.0,86,0.00,,,0.00,VWS V14.01,2013-11-03 23:41:00,
2013-11-03 18:46:00,38.8,35.0,30.19,NNE,21,0.0,3.0,86,0.00,,,0.00,VWS V14.01,2013-11-03 23:46:00,
2013-11-03 18:51:00,38.8,35.0,30.19,NNE,21,0.0,3.0,86,0.00,,,0.00,VWS V14.01,2013-11-03 23:51:00,
2013-11-03 18:56:00,38.9,35.1,30.19,NNE,21,0.0,3.0,86,0.00,,,0.00,VWS V14.01,2013-11-03 23:56:00,
2013-11-03 19:00:00,38.6,33.0,30.21,NW,325,0.0,6.0,80,0.00,,,0.00,VWS V14.01,2013-11-04 00:00:00,
2013-11-03 19:01:00,39.1,35.0,30.19,NNE,17,0.0,3.0,85,0.00,,,0.00,VWS V14.01,2013-11-04 00:01:00,
2013-11-03 19:06:00,39.2,35.1,30.19,NNE,17,3.0,3.0,85,0.00,,,0.00,VWS V14.01,2013-11-04 00:06:00,
2013-11-03 19:11:00,39.2,34.8,30.20,NNE,17,0.0,3.0,84,0.00,,,0.00,VWS V14.01,2013-11-04 00:11:00,
2013-11-03 19:16:00,39.2,34.8,30.20,NNW,346,0.0,3.0,84,0.00,,,0.00,VWS V14.01,2013-11-04 00:16:00,
2013-11-03 19:21:00,39.2,34.5,30.20,NNW,342,0.0,3.0,83,0.00,,,0.00,VWS V14.01,2013-11-04 00:21:00,
2013-11-03 19:26:00,39.2,34.5,30.21,NNW,340,1.0,4.0,83,0.00,,,0.00,VWS V14.01,2013-11-04 00:26:00,
2013-11-03 19:30:00,37.6,29.4,30.23,NNW,333,2.0,7.0,72,0.00,,,0.00,VWS V14.01,2013-11-04 00:30:00,
2013-11-03 19:31:00,39.2,34.5,30.20,NNW,338,2.0,5.0,83,0.00,,,0.00,VWS V14.01,2013-11-04 00:31:00,
2013-11-03 19:36:00,39.1,34.4,30.21,NW,306,2.0,6.0,83,0.00,,,0.00,VWS V14.01,2013-11-04 00:36:00,
2013-11-03 19:41:00,39.0,34.0,30.21,North,350,1.0,6.0,82,0.00,,,0.00,VWS V14.01,2013-11-04 00:41:00,
2013-11-03 19:46:00,39.0,33.7,30.21,NNW,337,0.0,6.0,81,0.00,,,0.00,VWS V14.01,2013-11-04 00:46:00,
2013-11-03 19:51:00,38.9,33.6,30.21,NNW,337,1.0,6.0,81,0.00,,,0.00,VWS V14.01,2013-11-04 00:51:00,
2013-11-03 19:56:00,38.8,33.2,30.21,NNW,343,0.0,6.0,80,0.00,,,0.00,VWS V14.01,2013-11-04 00:56:00,
2013-11-03 20:00:00,37.0,27.8,30.24,NNW,341,3.0,7.0,69,0.00,,,0.00,VWS V14.01,2013-11-04 01:00:00,
2013-11-03 20:01:00,38.7,33.1,30.21,NW,325,1.0,6.0,80,0.00,,,0.00,VWS V14.01,2013-11-04 01:01:00,
2013-11-03 20:06:00,38.5,32.2,30.22,North,360,1.0,5.0,78,0.00,,,0.00,VWS V14.01,2013-11-04 01:06:00,
2013-11-03 20:11:00,38.3,31.7,30.22,NW,323,3.0,5.0,77,0.00,,,0.00,VWS V14.01,2013-11-04 01:11:00,
2013-11-03 20:16:00,38.0,31.1,30.22,NNW,332,2.0,6.0,76,0.00,,,0.00,VWS V14.01,2013-11-04 01:16:00,
2013-11-03 20:21:00,37.9,31.0,30.22,NNW,331,1.0,6.0,76,0.00,,,0.00,VWS V14.01,2013-11-04 01:21:00,
2013-11-03 20:26:00,37.7,30.2,30.23,WNW,302,1.0,6.0,74,0.00,,,0.00,VWS V14.01,2013-11-04 01:26:00,
2013-11-03 20:30:00,36.6,26.7,30.25,NNW,336,5.0,7.0,67,0.00,,,0.00,VWS V14.01,2013-11-04 01:30:00,
2013-11-03 20:31:00,37.6,29.4,30.23,NW,316,2.0,7.0,72,0.00,,,0.00,VWS V14.01,2013-11-04 01:31:00,
2013-11-03 20:36:00,37.5,29.3,30.23,NNW,329,2.0,4.0,72,0.00,,,0.00,VWS V14.01,2013-11-04 01:36:00,
2013-11-03 20:41:00,37.4,28.5,30.23,NW,323,2.0,6.0,70,0.00,,,0.00,VWS V14.01,2013-11-04 01:41:00,
2013-11-03 20:46:00,37.3,28.1,30.24,NW,313,1.0,6.0,69,0.00,,,0.00,VWS V14.01,2013-11-04 01:46:00,
2013-11-03 20:51:00,37.2,27.6,30.24,NW,313,6.0,7.0,68,0.00,,,0.00,VWS V14.01,2013-11-04 01:51:00,
2013-11-03 20:56:00,37.2,27.6,30.24,WNW,300,3.0,7.0,68,0.00,,,0.00,VWS V14.01,2013-11-04 01:56:00,
2013-11-03 21:00:00,36.3,25.7,30.26,WNW,300,4.0,11.0,65,0.00,,,0.00,VWS V14.01,2013-11-04 02:00:00,
2013-11-03 21:01:00,37.1,27.9,30.24,NNW,343,3.0,7.0,69,0.00,,,0.00,VWS V14.01,2013-11-04 02:01:00,
2013-11-03 21:06:00,37.0,27.8,30.25,NW,319,4.0,4.0,69,0.00,,,0.00,VWS V14.01,2013-11-04 02:06:00,
2013-11-03 21:11:00,36.8,27.6,30.25,NW,317,1.0,5.0,69,0.00,,,0.00,VWS V14.01,2013-11-04 02:11:00,
2013-11-03 21:16:00,36.7,27.5,30.25,North,5,3.0,6.0,69,0.00,,,0.00,VWS V14.01,2013-11-04 02:16:00,
2013-11-03 21:21:00,36.7,27.1,30.25,NW,313,1.0,7.0,68,0.00,,,0.00,VWS V14.01,2013-11-04 02:21:00,
2013-11-03 21:26:00,36.7,26.8,30.25,NW,324,3.0,7.0,67,0.00,,,0.00,VWS V14.01,2013-11-04 02:26:00,
2013-11-03 21:30:00,36.2,26.0,30.27,NW,317,2.0,11.0,66,0.00,,,0.00,VWS V14.01,2013-11-04 02:30:00,
2013-11-03 21:31:00,36.6,26.7,30.25,North,360,3.0,7.0,67,0.00,,,0.00,VWS V14.01,2013-11-04 02:31:00,
2013-11-03 21:36:00,36.5,26.6,30.25,NW,319,3.0,4.0,67,0.00,,,0.00,VWS V14.01,2013-11-04 02:36:00,
2013-11-03 21:41:00,36.4,26.1,30.25,NNW,327,8.0,8.0,66,0.00,,,0.00,VWS V14.01,2013-11-04 02:41:00,
2013-11-03 21:46:00,36.4,26.1,30.25,WNW,288,1.0,8.0,66,0.00,,,0.00,VWS V14.01,2013-11-04 02:46:00,
2013-11-03 21:51:00,36.4,25.8,30.25,WNW,299,2.0,11.0,65,0.00,,,0.00,VWS V14.01,2013-11-04 02:51:00,
2013-11-03 21:56:00,36.3,26.0,30.26,NW,319,2.0,11.0,66,0.00,,,0.00,VWS V14.01,2013-11-04 02:56:00,
2013-11-03 22:00:00,35.9,26.4,30.28,NNW,327,5.0,8.0,68,0.00,,,0.00,VWS V14.01,2013-11-04 03:00:00,
2013-11-03 22:01:00,36.2,26.0,30.26,NW,314,4.0,11.0,66,0.00,,,0.00,VWS V14.01,2013-11-04 03:01:00,
2013-11-03 22:06:00,36.3,25.7,30.26,NW,318,1.0,10.0,65,0.00,,,0.00,VWS V14.01,2013-11-04 03:06:00,
2013-11-03 22:11:00,36.3,25.7,30.26,NW,314,3.0,10.0,65,0.00,,,0.00,VWS V14.01,2013-11-04 03:11:00,
2013-11-03 22:16:00,36.2,25.6,30.26,WNW,301,1.0,10.0,65,0.00,,,0.00,VWS V14.01,2013-11-04 03:16:00,
2013-11-03 22:21:00,36.2,25.6,30.27,West,271,0.0,10.0,65,0.00,,,0.00,VWS V14.01,2013-11-04 03:21:00,
2013-11-03 22:26:00,36.2,26.0,30.27,NW,325,5.0,11.0,66,0.00,,,0.00,VWS V14.01,2013-11-04 03:26:00,
2013-11-03 22:30:00,35.7,27.6,30.28,NW,315,1.0,8.0,72,0.00,,,0.00,VWS V14.01,2013-11-04 03:30:00,
2013-11-03 22:31:00,36.2,26.0,30.27,NW,317,1.0,11.0,66,0.00,,,0.00,VWS V14.01,2013-11-04 03:31:00,
2013-11-03 22:36:00,36.1,25.9,30.27,NW,310,4.0,8.0,66,0.00,,,0.00,VWS V14.01,2013-11-04 03:36:00,
2013-11-03 22:41:00,36.1,26.2,30.28,NW,308,3.0,8.0,67,0.00,,,0.00,VWS V14.01,2013-11-04 03:41:00,
2013-11-03 22:46:00,36.0,26.1,30.28,NNW,336,0.0,8.0,67,0.00,,,0.00,VWS V14.01,2013-11-04 03:46:00,
2013-11-03 22:51:00,35.9,26.0,30.28,NNW,347,5.0,8.0,67,0.00,,,0.00,VWS V14.01,2013-11-04 03:51:00,
2013-11-03 22:56:00,35.9,26.0,30.28,WNW,296,2.0,8.0,67,0.00,,,0.00,VWS V14.01,2013-11-04 03:56:00,
2013-11-03 23:00:00,35.6,28.1,30.30,NW,320,3.0,8.0,74,0.00,,,0.00,VWS V14.01,2013-11-04 04:00:00,
2013-11-03 23:01:00,35.9,26.4,30.28,NW,319,1.0,8.0,68,0.00,,,0.00,VWS V14.01,2013-11-04 04:01:00,
2013-11-03 23:06:00,35.8,26.3,30.28,WNW,295,4.0,6.0,68,0.00,,,0.00,VWS V14.01,2013-11-04 04:06:00,
2013-11-03 23:11:00,35.7,26.5,30.28,NW,319,2.0,6.0,69,0.00,,,0.00,VWS V14.01,2013-11-04 04:11:00,
2013-11-03 23:16:00,35.7,26.9,30.28,NW,309,3.0,8.0,70,0.00,,,0.00,VWS V14.01,2013-11-04 04:16:00,
2013-11-03 23:21:00,35.7,26.9,30.28,NNE,12,1.0,8.0,70,0.00,,,0.00,VWS V14.01,2013-11-04 04:21:00,
2013-11-03 23:26:00,35.7,27.2,30.28,NNW,333,3.0,8.0,71,0.00,,,0.00,VWS V14.01,2013-11-04 04:26:00,
2013-11-03 23:30:00,35.6,28.1,30.31,NNW,336,2.0,10.0,74,0.00,,,0.00,VWS V14.01,2013-11-04 04:30:00,
2013-11-03 23:31:00,35.7,27.2,30.29,NW,313,1.0,8.0,71,0.00,,,0.00,VWS V14.01,2013-11-04 04:31:00,
2013-11-03 23:36:00,35.6,27.5,30.29,NW,319,1.0,3.0,72,0.00,,,0.00,VWS V14.01,2013-11-04 04:36:00,
2013-11-03 23:41:00,35.6,27.8,30.29,North,355,0.0,6.0,73,0.00,,,0.00,VWS V14.01,2013-11-04 04:41:00,
2013-11-03 23:46:00,35.5,27.7,30.30,NW,310,3.0,8.0,73,0.00,,,0.00,VWS V14.01,2013-11-04 04:46:00,
2013-11-03 23:51:00,35.6,28.1,30.30,NW,320,4.0,8.0,74,0.00,,,0.00,VWS V14.01,2013-11-04 04:51:00,
2013-11-03 23:56:00,35.6,28.1,30.30,NW,309,2.0,8.0,74,0.00,,,0.00,VWS V14.01,2013-11-04 04:56:00,